sensor_id;sensor_type;location;lat;lon;timestamp;temperature;humidity
71128;SHT30;59249;59.736;30.568;2023-08-31T00:00:16;18.66;90.66
71128;SHT30;59249;59.736;30.568;2023-08-31T00:02:45;18.64;90.70
71128;SHT30;59249;59.736;30.568;2023-08-31T00:05:14;18.63;90.83
71128;SHT30;59249;59.736;30.568;2023-08-31T00:07:43;18.63;91.43
71128;SHT30;59249;59.736;30.568;2023-08-31T00:10:13;18.57;91.86
71128;SHT30;59249;59.736;30.568;2023-08-31T00:12:45;18.50;92.34
71128;SHT30;59249;59.736;30.568;2023-08-31T00:15:15;18.54;92.38
71128;SHT30;59249;59.736;30.568;2023-08-31T00:17:44;18.47;92.57
71128;SHT30;59249;59.736;30.568;2023-08-31T00:20:12;18.53;92.54
71128;SHT30;59249;59.736;30.568;2023-08-31T00:22:41;18.52;92.59
71128;SHT30;59249;59.736;30.568;2023-08-31T00:25:10;18.48;92.99
71128;SHT30;59249;59.736;30.568;2023-08-31T00:27:39;18.47;93.08
71128;SHT30;59249;59.736;30.568;2023-08-31T00:30:12;18.48;93.11
71128;SHT30;59249;59.736;30.568;2023-08-31T00:32:43;18.47;93.42
71128;SHT30;59249;59.736;30.568;2023-08-31T00:35:16;18.42;93.80
71128;SHT30;59249;59.736;30.568;2023-08-31T00:37:45;18.42;93.83
71128;SHT30;59249;59.736;30.568;2023-08-31T00:40:14;18.35;94.19
71128;SHT30;59249;59.736;30.568;2023-08-31T00:42:44;18.42;94.26
71128;SHT30;59249;59.736;30.568;2023-08-31T00:45:13;18.40;94.11
71128;SHT30;59249;59.736;30.568;2023-08-31T00:47:44;18.38;94.11
71128;SHT30;59249;59.736;30.568;2023-08-31T00:50:13;18.34;94.18
71128;SHT30;59249;59.736;30.568;2023-08-31T00:52:42;18.26;94.57
71128;SHT30;59249;59.736;30.568;2023-08-31T00:55:12;18.28;94.56
71128;SHT30;59249;59.736;30.568;2023-08-31T00:57:41;18.24;94.85
71128;SHT30;59249;59.736;30.568;2023-08-31T01:00:11;18.24;95.05
71128;SHT30;59249;59.736;30.568;2023-08-31T01:02:59;18.20;94.92
71128;SHT30;59249;59.736;30.568;2023-08-31T01:05:44;18.21;95.19
71128;SHT30;59249;59.736;30.568;2023-08-31T01:08:26;18.18;95.40
71128;SHT30;59249;59.736;30.568;2023-08-31T01:11:08;18.17;95.37
71128;SHT30;59249;59.736;30.568;2023-08-31T01:13:44;18.18;95.18
71128;SHT30;59249;59.736;30.568;2023-08-31T01:16:15;18.11;95.51
71128;SHT30;59249;59.736;30.568;2023-08-31T01:18:48;18.05;95.65
71128;SHT30;59249;59.736;30.568;2023-08-31T01:21:24;18.06;95.91
71128;SHT30;59249;59.736;30.568;2023-08-31T01:23:56;18.05;95.68
71128;SHT30;59249;59.736;30.568;2023-08-31T01:26:25;17.99;96.24
71128;SHT30;59249;59.736;30.568;2023-08-31T01:28:55;17.98;96.26
71128;SHT30;59249;59.736;30.568;2023-08-31T01:31:24;18.00;96.21
71128;SHT30;59249;59.736;30.568;2023-08-31T01:33:53;18.01;96.27
71128;SHT30;59249;59.736;30.568;2023-08-31T01:36:28;18.03;96.29
71128;SHT30;59249;59.736;30.568;2023-08-31T01:39:08;18.03;96.24
71128;SHT30;59249;59.736;30.568;2023-08-31T01:41:44;17.99;96.40
71128;SHT30;59249;59.736;30.568;2023-08-31T01:44:16;17.99;96.53
71128;SHT30;59249;59.736;30.568;2023-08-31T01:46:51;17.99;96.60
71128;SHT30;59249;59.736;30.568;2023-08-31T01:49:24;18.01;96.50
71128;SHT30;59249;59.736;30.568;2023-08-31T01:51:56;18.04;96.58
71128;SHT30;59249;59.736;30.568;2023-08-31T01:54:26;18.00;96.69
71128;SHT30;59249;59.736;30.568;2023-08-31T01:56:56;18.05;96.61
71128;SHT30;59249;59.736;30.568;2023-08-31T01:59:25;18.04;96.64
71128;SHT30;59249;59.736;30.568;2023-08-31T02:01:54;18.02;96.94
71128;SHT30;59249;59.736;30.568;2023-08-31T02:04:23;18.05;96.79
71128;SHT30;59249;59.736;30.568;2023-08-31T02:06:52;18.04;96.69
71128;SHT30;59249;59.736;30.568;2023-08-31T02:09:21;18.07;96.79
71128;SHT30;59249;59.736;30.568;2023-08-31T02:11:52;18.04;96.63
71128;SHT30;59249;59.736;30.568;2023-08-31T02:14:21;18.05;96.70
71128;SHT30;59249;59.736;30.568;2023-08-31T02:16:49;18.02;96.64
71128;SHT30;59249;59.736;30.568;2023-08-31T02:19:18;18.00;96.63
71128;SHT30;59249;59.736;30.568;2023-08-31T02:21:47;18.06;96.86
71128;SHT30;59249;59.736;30.568;2023-08-31T02:24:16;18.01;96.87
71128;SHT30;59249;59.736;30.568;2023-08-31T02:26:45;18.03;96.76
71128;SHT30;59249;59.736;30.568;2023-08-31T02:29:17;18.07;96.96
71128;SHT30;59249;59.736;30.568;2023-08-31T02:31:46;18.06;96.93
71128;SHT30;59249;59.736;30.568;2023-08-31T02:34:15;18.06;96.80
71128;SHT30;59249;59.736;30.568;2023-08-31T02:36:44;18.05;96.73
71128;SHT30;59249;59.736;30.568;2023-08-31T02:39:13;18.09;96.91
71128;SHT30;59249;59.736;30.568;2023-08-31T02:41:43;18.08;96.82
71128;SHT30;59249;59.736;30.568;2023-08-31T02:44:12;18.07;96.99
71128;SHT30;59249;59.736;30.568;2023-08-31T02:46:43;18.09;96.64
71128;SHT30;59249;59.736;30.568;2023-08-31T02:49:12;18.11;96.90
71128;SHT30;59249;59.736;30.568;2023-08-31T02:51:41;18.05;96.99
71128;SHT30;59249;59.736;30.568;2023-08-31T02:54:10;18.07;96.88
71128;SHT30;59249;59.736;30.568;2023-08-31T02:56:39;18.08;96.70
71128;SHT30;59249;59.736;30.568;2023-08-31T02:59:08;18.05;96.72
71128;SHT30;59249;59.736;30.568;2023-08-31T03:01:36;17.99;96.69
71128;SHT30;59249;59.736;30.568;2023-08-31T03:04:08;17.93;97.08
71128;SHT30;59249;59.736;30.568;2023-08-31T03:06:37;17.91;97.06
71128;SHT30;59249;59.736;30.568;2023-08-31T03:09:05;17.92;97.15
71128;SHT30;59249;59.736;30.568;2023-08-31T03:11:37;17.91;97.19
71128;SHT30;59249;59.736;30.568;2023-08-31T03:14:06;17.94;97.32
71128;SHT30;59249;59.736;30.568;2023-08-31T03:16:41;17.96;97.33
71128;SHT30;59249;59.736;30.568;2023-08-31T03:19:11;17.94;97.38
71128;SHT30;59249;59.736;30.568;2023-08-31T03:21:40;18.00;97.47
71128;SHT30;59249;59.736;30.568;2023-08-31T03:24:09;18.02;97.35
71128;SHT30;59249;59.736;30.568;2023-08-31T03:26:59;18.07;96.94
71128;SHT30;59249;59.736;30.568;2023-08-31T03:29:28;18.05;97.06
71128;SHT30;59249;59.736;30.568;2023-08-31T03:32:01;18.02;97.00
71128;SHT30;59249;59.736;30.568;2023-08-31T03:34:31;18.03;97.12
71128;SHT30;59249;59.736;30.568;2023-08-31T03:37:01;18.03;97.22
71128;SHT30;59249;59.736;30.568;2023-08-31T03:39:32;18.08;97.08
71128;SHT30;59249;59.736;30.568;2023-08-31T03:42:01;18.13;97.05
71128;SHT30;59249;59.736;30.568;2023-08-31T03:44:30;18.12;96.89
71128;SHT30;59249;59.736;30.568;2023-08-31T03:47:00;18.15;96.91
71128;SHT30;59249;59.736;30.568;2023-08-31T03:49:31;18.13;96.90
71128;SHT30;59249;59.736;30.568;2023-08-31T03:52:00;18.13;96.74
71128;SHT30;59249;59.736;30.568;2023-08-31T03:54:31;18.17;96.62
71128;SHT30;59249;59.736;30.568;2023-08-31T03:57:01;18.21;96.71
71128;SHT30;59249;59.736;30.568;2023-08-31T03:59:30;18.26;96.47
71128;SHT30;59249;59.736;30.568;2023-08-31T04:02:00;18.26;96.50
71128;SHT30;59249;59.736;30.568;2023-08-31T04:04:31;18.30;96.59
71128;SHT30;59249;59.736;30.568;2023-08-31T04:07:04;18.34;96.59
71128;SHT30;59249;59.736;30.568;2023-08-31T04:09:33;18.43;96.33
71128;SHT30;59249;59.736;30.568;2023-08-31T04:12:03;18.48;96.15
71128;SHT30;59249;59.736;30.568;2023-08-31T04:14:32;18.59;96.15
71128;SHT30;59249;59.736;30.568;2023-08-31T04:17:00;18.67;96.11
71128;SHT30;59249;59.736;30.568;2023-08-31T04:19:33;18.75;95.75
71128;SHT30;59249;59.736;30.568;2023-08-31T04:22:03;18.88;95.27
71128;SHT30;59249;59.736;30.568;2023-08-31T04:24:32;18.98;95.25
71128;SHT30;59249;59.736;30.568;2023-08-31T04:27:01;19.05;94.77
71128;SHT30;59249;59.736;30.568;2023-08-31T04:29:30;19.19;94.06
71128;SHT30;59249;59.736;30.568;2023-08-31T04:31:58;19.22;93.73
71128;SHT30;59249;59.736;30.568;2023-08-31T04:34:27;19.35;93.22
71128;SHT30;59249;59.736;30.568;2023-08-31T04:36:57;19.43;92.90
71128;SHT30;59249;59.736;30.568;2023-08-31T04:39:26;19.46;92.50
71128;SHT30;59249;59.736;30.568;2023-08-31T04:41:54;19.47;92.59
71128;SHT30;59249;59.736;30.568;2023-08-31T04:44:23;19.52;92.15
71128;SHT30;59249;59.736;30.568;2023-08-31T04:46:52;19.56;92.13
71128;SHT30;59249;59.736;30.568;2023-08-31T04:49:22;19.60;91.88
71128;SHT30;59249;59.736;30.568;2023-08-31T04:51:51;19.63;91.75
71128;SHT30;59249;59.736;30.568;2023-08-31T04:54:20;19.67;91.62
71128;SHT30;59249;59.736;30.568;2023-08-31T04:56:49;19.70;91.67
71128;SHT30;59249;59.736;30.568;2023-08-31T04:59:18;19.86;91.43
71128;SHT30;59249;59.736;30.568;2023-08-31T05:01:46;19.82;91.36
71128;SHT30;59249;59.736;30.568;2023-08-31T05:04:15;19.86;91.25
71128;SHT30;59249;59.736;30.568;2023-08-31T05:06:44;19.92;91.19
71128;SHT30;59249;59.736;30.568;2023-08-31T05:09:16;19.99;91.12
71128;SHT30;59249;59.736;30.568;2023-08-31T05:11:47;20.07;90.97
71128;SHT30;59249;59.736;30.568;2023-08-31T05:14:16;20.09;91.03
71128;SHT30;59249;59.736;30.568;2023-08-31T05:16:45;20.14;90.75
71128;SHT30;59249;59.736;30.568;2023-08-31T05:19:15;20.23;90.78
71128;SHT30;59249;59.736;30.568;2023-08-31T05:21:44;20.36;90.76
71128;SHT30;59249;59.736;30.568;2023-08-31T05:24:13;20.43;90.38
71128;SHT30;59249;59.736;30.568;2023-08-31T05:26:48;20.54;89.84
71128;SHT30;59249;59.736;30.568;2023-08-31T05:29:17;20.64;89.28
71128;SHT30;59249;59.736;30.568;2023-08-31T05:31:46;20.67;89.00
71128;SHT30;59249;59.736;30.568;2023-08-31T05:34:22;20.71;88.75
71128;SHT30;59249;59.736;30.568;2023-08-31T05:36:50;20.67;88.16
71128;SHT30;59249;59.736;30.568;2023-08-31T05:39:19;20.63;88.37
71128;SHT30;59249;59.736;30.568;2023-08-31T05:41:49;20.53;88.52
71128;SHT30;59249;59.736;30.568;2023-08-31T05:44:19;20.64;88.82
71128;SHT30;59249;59.736;30.568;2023-08-31T05:46:49;20.71;88.93
71128;SHT30;59249;59.736;30.568;2023-08-31T05:49:18;20.78;88.65
71128;SHT30;59249;59.736;30.568;2023-08-31T05:51:46;20.93;88.43
71128;SHT30;59249;59.736;30.568;2023-08-31T05:54:15;21.00;87.96
71128;SHT30;59249;59.736;30.568;2023-08-31T05:56:48;21.02;87.74
71128;SHT30;59249;59.736;30.568;2023-08-31T05:59:18;21.08;87.37
71128;SHT30;59249;59.736;30.568;2023-08-31T06:01:47;21.15;87.47
71128;SHT30;59249;59.736;30.568;2023-08-31T06:04:16;21.20;87.37
71128;SHT30;59249;59.736;30.568;2023-08-31T06:06:50;21.34;87.35
71128;SHT30;59249;59.736;30.568;2023-08-31T06:09:23;21.38;87.28
71128;SHT30;59249;59.736;30.568;2023-08-31T06:11:53;21.47;86.97
71128;SHT30;59249;59.736;30.568;2023-08-31T06:14:27;21.42;86.61
71128;SHT30;59249;59.736;30.568;2023-08-31T06:16:56;21.38;86.82
71128;SHT30;59249;59.736;30.568;2023-08-31T06:19:28;21.43;86.95
71128;SHT30;59249;59.736;30.568;2023-08-31T06:21:57;21.39;86.86
71128;SHT30;59249;59.736;30.568;2023-08-31T06:24:25;21.44;87.02
71128;SHT30;59249;59.736;30.568;2023-08-31T06:26:59;21.57;86.89
71128;SHT30;59249;59.736;30.568;2023-08-31T06:29:28;21.66;86.80
71128;SHT30;59249;59.736;30.568;2023-08-31T06:31:57;21.85;86.45
71128;SHT30;59249;59.736;30.568;2023-08-31T06:34:26;21.89;85.68
71128;SHT30;59249;59.736;30.568;2023-08-31T06:36:55;22.01;85.61
71128;SHT30;59249;59.736;30.568;2023-08-31T06:39:25;22.17;85.15
71128;SHT30;59249;59.736;30.568;2023-08-31T06:41:55;22.13;84.99
71128;SHT30;59249;59.736;30.568;2023-08-31T06:44:31;22.27;84.97
71128;SHT30;59249;59.736;30.568;2023-08-31T06:47:00;22.40;85.11
71128;SHT30;59249;59.736;30.568;2023-08-31T06:49:30;22.59;84.53
71128;SHT30;59249;59.736;30.568;2023-08-31T06:52:00;22.57;83.10
71128;SHT30;59249;59.736;30.568;2023-08-31T06:54:36;22.66;82.89
71128;SHT30;59249;59.736;30.568;2023-08-31T06:57:05;22.68;82.77
71128;SHT30;59249;59.736;30.568;2023-08-31T06:59:35;22.68;82.74
71128;SHT30;59249;59.736;30.568;2023-08-31T07:02:04;22.76;82.89
71128;SHT30;59249;59.736;30.568;2023-08-31T07:04:33;22.85;82.57
71128;SHT30;59249;59.736;30.568;2023-08-31T07:07:02;22.92;82.79
71128;SHT30;59249;59.736;30.568;2023-08-31T07:09:32;22.97;82.13
71128;SHT30;59249;59.736;30.568;2023-08-31T07:12:01;22.95;81.60
71128;SHT30;59249;59.736;30.568;2023-08-31T07:14:30;23.08;81.74
71128;SHT30;59249;59.736;30.568;2023-08-31T07:17:01;23.04;81.59
71128;SHT30;59249;59.736;30.568;2023-08-31T07:19:30;23.06;81.69
71128;SHT30;59249;59.736;30.568;2023-08-31T07:21:59;23.06;81.03
71128;SHT30;59249;59.736;30.568;2023-08-31T07:24:28;23.03;81.21
71128;SHT30;59249;59.736;30.568;2023-08-31T07:26:57;23.10;80.92
71128;SHT30;59249;59.736;30.568;2023-08-31T07:29:27;23.13;80.43
71128;SHT30;59249;59.736;30.568;2023-08-31T07:31:56;23.11;80.32
71128;SHT30;59249;59.736;30.568;2023-08-31T07:34:27;23.08;80.20
71128;SHT30;59249;59.736;30.568;2023-08-31T07:36:56;23.20;79.85
71128;SHT30;59249;59.736;30.568;2023-08-31T07:39:25;23.27;79.46
71128;SHT30;59249;59.736;30.568;2023-08-31T07:41:57;23.34;79.47
71128;SHT30;59249;59.736;30.568;2023-08-31T07:44:26;23.43;79.01
71128;SHT30;59249;59.736;30.568;2023-08-31T07:46:55;23.58;79.21
71128;SHT30;59249;59.736;30.568;2023-08-31T07:49:24;23.52;78.79
71128;SHT30;59249;59.736;30.568;2023-08-31T07:51:55;23.72;78.81
71128;SHT30;59249;59.736;30.568;2023-08-31T07:54:24;23.87;78.46
71128;SHT30;59249;59.736;30.568;2023-08-31T07:56:53;24.10;78.07
71128;SHT30;59249;59.736;30.568;2023-08-31T07:59:22;24.20;78.04
71128;SHT30;59249;59.736;30.568;2023-08-31T08:01:50;24.34;77.74
71128;SHT30;59249;59.736;30.568;2023-08-31T08:04:19;24.43;77.29
71128;SHT30;59249;59.736;30.568;2023-08-31T08:06:59;24.18;76.76
71128;SHT30;59249;59.736;30.568;2023-08-31T08:09:28;24.08;77.14
71128;SHT30;59249;59.736;30.568;2023-08-31T08:11:58;24.03;77.39
71128;SHT30;59249;59.736;30.568;2023-08-31T08:14:33;23.97;77.44
71128;SHT30;59249;59.736;30.568;2023-08-31T08:17:03;23.95;77.63
71128;SHT30;59249;59.736;30.568;2023-08-31T08:19:32;23.99;77.78
71128;SHT30;59249;59.736;30.568;2023-08-31T08:22:06;24.08;77.78
71128;SHT30;59249;59.736;30.568;2023-08-31T08:24:35;24.17;77.85
71128;SHT30;59249;59.736;30.568;2023-08-31T08:27:06;24.21;77.90
71128;SHT30;59249;59.736;30.568;2023-08-31T08:29:35;24.31;77.96
71128;SHT30;59249;59.736;30.568;2023-08-31T08:32:08;24.39;77.67
71128;SHT30;59249;59.736;30.568;2023-08-31T08:34:37;24.48;77.34
71128;SHT30;59249;59.736;30.568;2023-08-31T08:37:07;24.55;77.42
71128;SHT30;59249;59.736;30.568;2023-08-31T08:39:37;24.60;77.25
71128;SHT30;59249;59.736;30.568;2023-08-31T08:42:10;24.63;77.02
71128;SHT30;59249;59.736;30.568;2023-08-31T08:44:41;24.60;77.15
71128;SHT30;59249;59.736;30.568;2023-08-31T08:47:11;24.63;76.52
71128;SHT30;59249;59.736;30.568;2023-08-31T08:49:40;24.66;76.48
71128;SHT30;59249;59.736;30.568;2023-08-31T08:52:11;24.73;76.47
71128;SHT30;59249;59.736;30.568;2023-08-31T08:54:40;24.79;76.34
71128;SHT30;59249;59.736;30.568;2023-08-31T08:57:09;24.77;76.35
71128;SHT30;59249;59.736;30.568;2023-08-31T08:59:38;24.80;76.08
71128;SHT30;59249;59.736;30.568;2023-08-31T09:02:10;24.85;75.97
71128;SHT30;59249;59.736;30.568;2023-08-31T09:04:39;24.84;75.76
71128;SHT30;59249;59.736;30.568;2023-08-31T09:07:10;24.92;75.79
71128;SHT30;59249;59.736;30.568;2023-08-31T09:09:50;25.00;75.36
71128;SHT30;59249;59.736;30.568;2023-08-31T09:12:21;24.99;75.53
71128;SHT30;59249;59.736;30.568;2023-08-31T09:14:58;25.01;75.46
71128;SHT30;59249;59.736;30.568;2023-08-31T09:17:41;25.07;75.02
71128;SHT30;59249;59.736;30.568;2023-08-31T09:20:12;25.11;75.25
71128;SHT30;59249;59.736;30.568;2023-08-31T09:22:47;25.18;75.14
71128;SHT30;59249;59.736;30.568;2023-08-31T09:25:18;25.20;75.27
71128;SHT30;59249;59.736;30.568;2023-08-31T09:27:54;25.30;75.12
71128;SHT30;59249;59.736;30.568;2023-08-31T09:30:23;25.41;74.93
71128;SHT30;59249;59.736;30.568;2023-08-31T09:32:52;25.41;74.86
71128;SHT30;59249;59.736;30.568;2023-08-31T09:35:21;25.61;74.74
71128;SHT30;59249;59.736;30.568;2023-08-31T09:37:58;25.77;74.48
71128;SHT30;59249;59.736;30.568;2023-08-31T09:40:27;25.87;74.25
71128;SHT30;59249;59.736;30.568;2023-08-31T09:42:58;25.92;73.87
71128;SHT30;59249;59.736;30.568;2023-08-31T09:45:31;25.94;73.44
71128;SHT30;59249;59.736;30.568;2023-08-31T09:48:06;25.90;73.26
71128;SHT30;59249;59.736;30.568;2023-08-31T09:50:37;26.04;72.87
71128;SHT30;59249;59.736;30.568;2023-08-31T09:53:10;26.08;72.50
71128;SHT30;59249;59.736;30.568;2023-08-31T09:55:40;26.13;71.92
71128;SHT30;59249;59.736;30.568;2023-08-31T09:58:11;26.18;72.09
71128;SHT30;59249;59.736;30.568;2023-08-31T10:00:44;26.28;71.81
71128;SHT30;59249;59.736;30.568;2023-08-31T10:03:15;26.36;71.70
71128;SHT30;59249;59.736;30.568;2023-08-31T10:05:49;26.46;71.75
71128;SHT30;59249;59.736;30.568;2023-08-31T10:08:20;26.59;71.75
71128;SHT30;59249;59.736;30.568;2023-08-31T10:10:52;26.60;70.95
71128;SHT30;59249;59.736;30.568;2023-08-31T10:13:24;26.63;70.31
71128;SHT30;59249;59.736;30.568;2023-08-31T10:16:03;26.57;69.94
71128;SHT30;59249;59.736;30.568;2023-08-31T10:18:37;26.62;69.98
71128;SHT30;59249;59.736;30.568;2023-08-31T10:21:06;26.64;70.07
71128;SHT30;59249;59.736;30.568;2023-08-31T10:23:46;26.62;69.70
71128;SHT30;59249;59.736;30.568;2023-08-31T10:26:27;26.71;69.49
71128;SHT30;59249;59.736;30.568;2023-08-31T10:29:26;26.76;69.68
71128;SHT30;59249;59.736;30.568;2023-08-31T10:32:01;26.88;69.68
71128;SHT30;59249;59.736;30.568;2023-08-31T10:34:37;27.07;69.47
71128;SHT30;59249;59.736;30.568;2023-08-31T10:37:20;27.11;68.86
71128;SHT30;59249;59.736;30.568;2023-08-31T10:40:20;27.08;67.97
71128;SHT30;59249;59.736;30.568;2023-08-31T10:43:16;27.14;67.54
71128;SHT30;59249;59.736;30.568;2023-08-31T10:49:14;27.31;67.56
71128;SHT30;59249;59.736;30.568;2023-08-31T10:51:47;27.31;67.34
71128;SHT30;59249;59.736;30.568;2023-08-31T10:54:23;27.38;66.53
71128;SHT30;59249;59.736;30.568;2023-08-31T10:57:08;27.39;66.15
71128;SHT30;59249;59.736;30.568;2023-08-31T10:59:48;27.43;66.25
71128;SHT30;59249;59.736;30.568;2023-08-31T11:02:43;27.49;65.62
71128;SHT30;59249;59.736;30.568;2023-08-31T11:05:14;27.45;65.54
71128;SHT30;59249;59.736;30.568;2023-08-31T11:07:50;27.54;65.42
71128;SHT30;59249;59.736;30.568;2023-08-31T11:10:23;27.50;65.26
71128;SHT30;59249;59.736;30.568;2023-08-31T11:13:00;27.51;65.23
71128;SHT30;59249;59.736;30.568;2023-08-31T11:15:35;27.58;65.29
71128;SHT30;59249;59.736;30.568;2023-08-31T11:18:12;27.70;65.19
71128;SHT30;59249;59.736;30.568;2023-08-31T11:20:48;27.78;65.01
71128;SHT30;59249;59.736;30.568;2023-08-31T11:23:18;27.82;64.83
71128;SHT30;59249;59.736;30.568;2023-08-31T11:25:47;28.02;65.00
71128;SHT30;59249;59.736;30.568;2023-08-31T11:28:37;28.07;64.70
71128;SHT30;59249;59.736;30.568;2023-08-31T11:31:06;28.20;64.20
71128;SHT30;59249;59.736;30.568;2023-08-31T11:33:36;28.12;63.82
71128;SHT30;59249;59.736;30.568;2023-08-31T11:36:09;28.16;63.79
71128;SHT30;59249;59.736;30.568;2023-08-31T11:38:41;28.31;63.90
71128;SHT30;59249;59.736;30.568;2023-08-31T11:41:12;28.26;63.21
71128;SHT30;59249;59.736;30.568;2023-08-31T11:43:43;28.26;62.84
71128;SHT30;59249;59.736;30.568;2023-08-31T11:46:16;28.35;62.47
71128;SHT30;59249;59.736;30.568;2023-08-31T11:48:45;28.39;62.13
71128;SHT30;59249;59.736;30.568;2023-08-31T11:51:14;28.37;61.64
71128;SHT30;59249;59.736;30.568;2023-08-31T11:53:48;28.32;61.55
71128;SHT30;59249;59.736;30.568;2023-08-31T11:56:22;28.27;61.85
71128;SHT30;59249;59.736;30.568;2023-08-31T11:58:56;28.40;62.13
71128;SHT30;59249;59.736;30.568;2023-08-31T12:01:38;28.67;61.74
71128;SHT30;59249;59.736;30.568;2023-08-31T12:04:28;28.76;60.90
71128;SHT30;59249;59.736;30.568;2023-08-31T12:07:04;28.74;61.02
71128;SHT30;59249;59.736;30.568;2023-08-31T12:09:37;28.75;61.32
71128;SHT30;59249;59.736;30.568;2023-08-31T12:12:07;28.86;61.46
71128;SHT30;59249;59.736;30.568;2023-08-31T12:14:55;28.76;61.08
71128;SHT30;59249;59.736;30.568;2023-08-31T12:17:37;28.91;61.11
71128;SHT30;59249;59.736;30.568;2023-08-31T12:20:15;28.93;61.61
71128;SHT30;59249;59.736;30.568;2023-08-31T12:22:48;28.52;62.08
71128;SHT30;59249;59.736;30.568;2023-08-31T12:25:21;28.41;62.22
71128;SHT30;59249;59.736;30.568;2023-08-31T12:28:04;28.44;62.66
71128;SHT30;59249;59.736;30.568;2023-08-31T12:30:42;28.60;62.55
71128;SHT30;59249;59.736;30.568;2023-08-31T12:33:13;28.74;62.05
71128;SHT30;59249;59.736;30.568;2023-08-31T12:35:55;28.99;61.75
71128;SHT30;59249;59.736;30.568;2023-08-31T12:38:31;29.14;61.27
71128;SHT30;59249;59.736;30.568;2023-08-31T12:41:07;29.23;61.04
71128;SHT30;59249;59.736;30.568;2023-08-31T12:43:36;29.29;61.01
71128;SHT30;59249;59.736;30.568;2023-08-31T12:46:11;29.39;61.11
71128;SHT30;59249;59.736;30.568;2023-08-31T12:48:44;29.49;60.95
71128;SHT30;59249;59.736;30.568;2023-08-31T12:51:13;29.54;60.85
71128;SHT30;59249;59.736;30.568;2023-08-31T12:53:42;29.63;60.52
71128;SHT30;59249;59.736;30.568;2023-08-31T12:56:14;29.54;60.60
71128;SHT30;59249;59.736;30.568;2023-08-31T12:58:51;29.47;60.62
71128;SHT30;59249;59.736;30.568;2023-08-31T13:01:22;29.47;60.43
71128;SHT30;59249;59.736;30.568;2023-08-31T13:03:55;29.50;60.23
71128;SHT30;59249;59.736;30.568;2023-08-31T13:06:25;29.41;60.36
71128;SHT30;59249;59.736;30.568;2023-08-31T13:08:57;29.44;60.80
71128;SHT30;59249;59.736;30.568;2023-08-31T13:11:26;29.39;61.07
71128;SHT30;59249;59.736;30.568;2023-08-31T13:13:55;29.23;61.44
71128;SHT30;59249;59.736;30.568;2023-08-31T13:16:27;29.23;61.47
71128;SHT30;59249;59.736;30.568;2023-08-31T13:18:57;29.25;61.43
71128;SHT30;59249;59.736;30.568;2023-08-31T13:21:30;29.32;61.66
71128;SHT30;59249;59.736;30.568;2023-08-31T13:23:59;29.36;61.81
71128;SHT30;59249;59.736;30.568;2023-08-31T13:26:30;29.37;61.91
71128;SHT30;59249;59.736;30.568;2023-08-31T13:29:03;29.54;62.04
71128;SHT30;59249;59.736;30.568;2023-08-31T13:31:41;29.53;61.65
71128;SHT30;59249;59.736;30.568;2023-08-31T13:34:12;29.62;61.57
71128;SHT30;59249;59.736;30.568;2023-08-31T13:36:45;29.59;61.63
71128;SHT30;59249;59.736;30.568;2023-08-31T13:39:17;29.47;61.77
71128;SHT30;59249;59.736;30.568;2023-08-31T13:41:51;29.45;62.09
71128;SHT30;59249;59.736;30.568;2023-08-31T13:44:20;29.35;62.27
71128;SHT30;59249;59.736;30.568;2023-08-31T13:46:51;29.32;62.76
71128;SHT30;59249;59.736;30.568;2023-08-31T13:49:23;29.28;62.64
71128;SHT30;59249;59.736;30.568;2023-08-31T13:51:59;29.30;62.46
71128;SHT30;59249;59.736;30.568;2023-08-31T13:54:35;29.26;62.61
71128;SHT30;59249;59.736;30.568;2023-08-31T13:57:09;29.21;62.96
71128;SHT30;59249;59.736;30.568;2023-08-31T13:59:48;29.09;63.03
71128;SHT30;59249;59.736;30.568;2023-08-31T14:02:21;28.96;63.38
71128;SHT30;59249;59.736;30.568;2023-08-31T14:04:51;28.74;63.66
71128;SHT30;59249;59.736;30.568;2023-08-31T14:07:22;28.61;64.62
71128;SHT30;59249;59.736;30.568;2023-08-31T14:09:55;28.48;64.75
71128;SHT30;59249;59.736;30.568;2023-08-31T14:12:31;28.39;65.18
71128;SHT30;59249;59.736;30.568;2023-08-31T14:15:06;28.17;65.66
71128;SHT30;59249;59.736;30.568;2023-08-31T14:17:41;28.13;65.76
71128;SHT30;59249;59.736;30.568;2023-08-31T14:20:13;28.11;66.14
71128;SHT30;59249;59.736;30.568;2023-08-31T14:22:42;28.08;66.12
71128;SHT30;59249;59.736;30.568;2023-08-31T14:25:16;28.06;66.24
71128;SHT30;59249;59.736;30.568;2023-08-31T14:27:55;28.09;66.22
71128;SHT30;59249;59.736;30.568;2023-08-31T14:30:27;28.06;66.47
71128;SHT30;59249;59.736;30.568;2023-08-31T14:33:00;28.13;66.25
71128;SHT30;59249;59.736;30.568;2023-08-31T14:35:30;28.18;66.27
71128;SHT30;59249;59.736;30.568;2023-08-31T14:37:59;28.28;66.23
71128;SHT30;59249;59.736;30.568;2023-08-31T14:40:29;28.48;66.23
71128;SHT30;59249;59.736;30.568;2023-08-31T14:42:58;28.60;66.03
71128;SHT30;59249;59.736;30.568;2023-08-31T14:45:28;28.63;65.75
71128;SHT30;59249;59.736;30.568;2023-08-31T14:48:06;28.69;65.27
71128;SHT30;59249;59.736;30.568;2023-08-31T14:50:35;28.70;65.78
71128;SHT30;59249;59.736;30.568;2023-08-31T14:53:04;28.67;65.67
71128;SHT30;59249;59.736;30.568;2023-08-31T14:55:33;28.48;65.98
71128;SHT30;59249;59.736;30.568;2023-08-31T14:58:04;28.37;66.13
71128;SHT30;59249;59.736;30.568;2023-08-31T15:00:39;28.48;66.30
71128;SHT30;59249;59.736;30.568;2023-08-31T15:03:40;28.95;65.35
71128;SHT30;59249;59.736;30.568;2023-08-31T15:06:10;29.19;64.90
71128;SHT30;59249;59.736;30.568;2023-08-31T15:08:40;29.40;64.59
71128;SHT30;59249;59.736;30.568;2023-08-31T15:11:12;29.55;64.28
71128;SHT30;59249;59.736;30.568;2023-08-31T15:13:43;29.70;64.04
71128;SHT30;59249;59.736;30.568;2023-08-31T15:16:15;29.90;63.70
71128;SHT30;59249;59.736;30.568;2023-08-31T15:18:47;30.07;62.94
71128;SHT30;59249;59.736;30.568;2023-08-31T15:21:24;30.23;62.64
71128;SHT30;59249;59.736;30.568;2023-08-31T15:23:54;30.21;62.38
71128;SHT30;59249;59.736;30.568;2023-08-31T15:26:24;30.00;59.95
71128;SHT30;59249;59.736;30.568;2023-08-31T15:28:53;29.87;57.98
71128;SHT30;59249;59.736;30.568;2023-08-31T15:31:23;29.81;57.23
71128;SHT30;59249;59.736;30.568;2023-08-31T15:33:55;29.72;57.32
71128;SHT30;59249;59.736;30.568;2023-08-31T15:36:26;29.62;56.84
71128;SHT30;59249;59.736;30.568;2023-08-31T15:38:57;29.60;56.82
71128;SHT30;59249;59.736;30.568;2023-08-31T15:41:36;29.62;56.48
71128;SHT30;59249;59.736;30.568;2023-08-31T15:44:06;29.72;56.29
71128;SHT30;59249;59.736;30.568;2023-08-31T15:46:36;29.69;55.75